Time;durP1;ratioP1;P1;durP2;ratioP2;P2;SDS_P1;SDS_P2;PMS_P1;PMS_P2;Temp;Humidity;BMP_temperature;BMP_pressure;BME280_temperature;BME280_humidity;BME280_pressure;Samples;Min_cycle;Max_cycle;Signal;HPM_P1;HPM_P2
2022/08/18 00:00:28;;;;;;;7.73;7.03;;;21.60;99.90;;;;;;5055040;28;20465;-56
2022/08/18 00:02:56;;;;;;;6.43;5.93;;;21.80;99.90;;;;;;5055834;28;20453;-56
2022/08/18 00:05:24;;;;;;;6.60;6.00;;;21.60;99.90;;;;;;5055815;28;20445;-56
2022/08/18 00:07:51;;;;;;;7.20;6.50;;;21.60;99.90;;;;;;5055644;28;20449;-56
2022/08/18 00:10:19;;;;;;;7.37;6.63;;;21.80;99.90;;;;;;5055423;28;20479;-57
2022/08/18 00:12:47;;;;;;;6.70;6.20;;;21.60;99.90;;;;;;5055386;28;20536;-56
2022/08/18 00:15:16;;;;;;;7.20;6.60;;;21.50;99.90;;;;;;5055503;28;20531;-56
2022/08/18 00:17:44;;;;;;;7.57;6.77;;;21.50;99.90;;;;;;5055069;28;20517;-56
2022/08/18 00:20:16;;;;;;;6.87;6.17;;;21.40;99.90;;;;;;5055490;28;20552;-56
2022/08/18 00:22:43;;;;;;;5.90;5.43;;;21.30;99.90;;;;;;5055175;28;20417;-56
2022/08/18 00:25:13;;;;;;;5.97;5.50;;;21.40;99.90;;;;;;5055341;28;20449;-56
2022/08/18 00:27:41;;;;;;;6.90;6.30;;;21.50;99.90;;;;;;5055306;28;20445;-56
2022/08/18 00:30:12;;;;;;;6.80;6.30;;;21.20;99.90;;;;;;5054960;28;20457;-56
2022/08/18 00:32:42;;;;;;;6.50;6.00;;;21.30;99.90;;;;;;5054979;28;20529;-56
2022/08/18 00:35:12;;;;;;;6.63;6.00;;;21.10;99.90;;;;;;5055300;28;20541;-56
2022/08/18 00:37:39;;;;;;;5.83;5.33;;;21.10;99.90;;;;;;5054929;28;21059;-56
2022/08/18 00:40:09;;;;;;;6.70;6.10;;;21.30;99.90;;;;;;5054774;28;20804;-56
2022/08/18 00:42:43;;;;;;;6.47;5.87;;;21.40;99.90;;;;;;5055042;28;20473;-57
2022/08/18 00:45:15;;;;;;;8.80;6.50;;;21.20;99.90;;;;;;5054993;28;20429;-56
2022/08/18 00:47:43;;;;;;;12.40;6.27;;;21.20;99.90;;;;;;5054758;28;20425;-56
2022/08/18 00:50:15;;;;;;;9.27;7.13;;;21.00;99.90;;;;;;5054120;28;20573;-56
2022/08/18 00:52:47;;;;;;;6.93;6.37;;;20.90;99.90;;;;;;5054636;28;20430;-56
2022/08/18 00:55:16;;;;;;;8.13;6.30;;;20.80;99.90;;;;;;5054528;28;20500;-56
2022/08/18 00:57:44;;;;;;;6.93;6.33;;;20.80;99.90;;;;;;5054672;28;20839;-57
2022/08/18 01:00:14;;;;;;;7.10;6.60;;;20.90;99.90;;;;;;5054229;28;21042;-57
2022/08/18 01:02:45;;;;;;;6.33;5.73;;;20.90;99.90;;;;;;5054295;28;20446;-57
2022/08/18 01:05:20;;;;;;;6.73;6.13;;;20.90;99.90;;;;;;5054473;28;20436;-56
2022/08/18 01:07:49;;;;;;;7.40;6.73;;;20.80;99.90;;;;;;5054678;28;20443;-56
2022/08/18 01:10:20;;;;;;;6.20;5.77;;;20.90;99.90;;;;;;5054269;28;20805;-56
2022/08/18 01:12:51;;;;;;;5.93;5.33;;;20.80;99.90;;;;;;5053519;28;20430;-57
2022/08/18 01:15:21;;;;;;;6.83;5.83;;;20.90;99.90;;;;;;5054237;28;20465;-56
2022/08/18 01:23:30;;;;;;;6.63;6.13;;;20.80;99.90;;;;;;5054230;28;20411;-56
2022/08/18 01:25:59;;;;;;;6.53;5.93;;;20.90;99.90;;;;;;5053920;28;20421;-57
2022/08/18 01:28:26;;;;;;;7.00;6.40;;;20.90;99.90;;;;;;5054092;28;20437;-56
2022/08/18 01:30:57;;;;;;;7.57;6.87;;;20.90;99.90;;;;;;5054170;28;20813;-56
2022/08/18 01:33:31;;;;;;;6.83;6.07;;;20.90;99.90;;;;;;5053874;28;20529;-56
2022/08/18 01:36:02;;;;;;;6.47;5.87;;;21.00;99.90;;;;;;5054059;28;20438;-56
2022/08/18 01:38:31;;;;;;;6.00;5.57;;;21.10;99.90;;;;;;5053573;28;20469;-56
2022/08/18 01:40:58;;;;;;;6.73;6.13;;;21.10;99.90;;;;;;5054055;28;20480;-56
2022/08/18 01:43:38;;;;;;;6.27;5.77;;;21.00;99.90;;;;;;5091069;27;20623;-56
2022/08/18 01:46:06;;;;;;;6.80;6.03;;;21.00;99.90;;;;;;5090677;28;20775;-57
2022/08/18 01:48:34;;;;;;;8.33;6.37;;;21.00;99.90;;;;;;5090588;28;20919;-56
2022/08/18 01:51:04;;;;;;;6.20;5.70;;;20.90;99.90;;;;;;5090651;28;20451;-56
2022/08/18 01:53:31;;;;;;;6.83;6.23;;;20.90;99.90;;;;;;5091211;28;20441;-56
2022/08/18 01:55:58;;;;;;;5.90;5.50;;;20.80;99.90;;;;;;5090704;28;20442;-55
2022/08/18 01:58:27;;;;;;;6.20;5.70;;;20.90;99.90;;;;;;5090757;28;20447;-56
2022/08/18 02:00:57;;;;;;;6.37;5.87;;;20.80;99.90;;;;;;5090730;28;20459;-56
2022/08/18 02:03:28;;;;;;;8.27;6.23;;;20.90;99.90;;;;;;5090225;28;20471;-56
2022/08/18 02:05:58;;;;;;;5.97;5.47;;;21.10;99.90;;;;;;5090648;28;20759;-56
2022/08/18 02:08:25;;;;;;;6.60;6.10;;;21.10;99.90;;;;;;5090711;28;20787;-56
2022/08/18 02:10:52;;;;;;;7.03;6.43;;;21.10;99.90;;;;;;5090339;28;20479;-56
2022/08/18 02:13:20;;;;;;;7.50;5.90;;;20.90;99.90;;;;;;5090149;28;20446;-56
2022/08/18 02:15:48;;;;;;;6.80;6.20;;;20.80;99.90;;;;;;5090173;28;20539;-56
2022/08/18 02:18:18;;;;;;;6.97;6.37;;;20.70;99.90;;;;;;5090261;28;20534;-57
2022/08/18 02:20:46;;;;;;;6.23;5.63;;;20.80;99.90;;;;;;5090319;28;20562;-56
2022/08/18 02:23:14;;;;;;;7.20;6.53;;;20.70;99.90;;;;;;5089815;28;20507;-56
2022/08/18 02:25:43;;;;;;;9.40;6.10;;;20.70;99.90;;;;;;5089924;28;20539;-56
2022/08/18 02:28:10;;;;;;;6.73;6.13;;;20.70;99.90;;;;;;5090166;28;20523;-57
2022/08/18 02:30:37;;;;;;;6.03;5.50;;;20.70;99.90;;;;;;5090023;28;20464;-56
2022/08/18 02:33:05;;;;;;;6.60;6.10;;;21.00;99.90;;;;;;5090233;28;20468;-56
2022/08/18 02:35:34;;;;;;;6.53;6.03;;;20.80;99.90;;;;;;5090024;28;20542;-56
2022/08/18 02:38:02;;;;;;;7.30;6.60;;;20.70;99.90;;;;;;5089973;28;20435;-56
2022/08/18 02:40:31;;;;;;;6.90;6.17;;;20.60;99.90;;;;;;5089570;28;20466;-57
2022/08/18 02:42:58;;;;;;;6.23;5.73;;;20.60;99.90;;;;;;5089345;28;20486;-57
2022/08/18 02:45:26;;;;;;;8.17;7.37;;;20.50;99.90;;;;;;5089606;28;20459;-57
2022/08/18 02:47:54;;;;;;;6.40;5.90;;;20.40;99.90;;;;;;5089616;28;20447;-56
2022/08/18 02:50:21;;;;;;;8.37;6.70;;;20.50;99.90;;;;;;5089730;28;20528;-55
2022/08/18 02:52:49;;;;;;;7.07;6.50;;;20.40;99.90;;;;;;5088303;28;20446;-56
2022/08/18 02:55:17;;;;;;;7.37;5.80;;;20.30;99.90;;;;;;5075557;28;20444;-55
2022/08/18 02:57:45;;;;;;;6.87;6.27;;;20.30;99.90;;;;;;5076257;28;20444;-56
2022/08/18 03:00:15;;;;;;;6.47;5.87;;;20.30;99.90;;;;;;5075760;28;20444;-56
2022/08/18 03:02:46;;;;;;;7.07;6.47;;;20.50;99.90;;;;;;5075643;28;20570;-55
2022/08/18 03:05:14;;;;;;;6.83;6.20;;;20.50;99.90;;;;;;5076189;28;20813;-56
2022/08/18 03:07:41;;;;;;;6.97;6.37;;;20.40;99.90;;;;;;5075674;28;20460;-56
2022/08/18 03:10:10;;;;;;;6.93;6.33;;;20.20;99.90;;;;;;5075326;28;20452;-57
2022/08/18 03:12:37;;;;;;;6.77;6.20;;;20.10;99.90;;;;;;5075957;28;20424;-56
2022/08/18 03:15:05;;;;;;;6.70;6.10;;;20.30;99.90;;;;;;5075469;28;20448;-56
2022/08/18 03:17:35;;;;;;;7.37;6.77;;;20.40;99.90;;;;;;5075699;28;20448;-57
2022/08/18 03:20:03;;;;;;;8.20;7.17;;;20.40;99.90;;;;;;5075574;28;20448;-56
2022/08/18 03:22:31;;;;;;;7.90;7.20;;;20.30;99.90;;;;;;5075386;28;20476;-56
2022/08/18 03:24:58;;;;;;;7.27;6.53;;;20.20;99.90;;;;;;5075287;28;20997;-55
2022/08/18 03:27:26;;;;;;;6.90;6.27;;;20.10;99.90;;;;;;5075201;28;20943;-55
2022/08/18 03:29:54;;;;;;;7.33;6.70;;;20.10;99.90;;;;;;5075546;28;20452;-56
2022/08/18 03:32:21;;;;;;;7.70;7.00;;;20.10;99.90;;;;;;5075161;28;20954;-56
2022/08/18 03:34:48;;;;;;;7.80;7.00;;;20.10;99.90;;;;;;5075384;28;20505;-56
2022/08/18 03:37:15;;;;;;;6.40;5.90;;;20.10;99.90;;;;;;5075476;28;20505;-56
2022/08/18 03:39:42;;;;;;;6.67;6.00;;;20.20;99.90;;;;;;5074942;28;20449;-57
2022/08/18 03:42:11;;;;;;;7.47;6.77;;;20.30;99.90;;;;;;5074436;28;21060;-55
2022/08/18 03:44:39;;;;;;;6.63;6.03;;;20.30;99.90;;;;;;5075296;28;20471;-56
2022/08/18 03:47:08;;;;;;;6.73;6.20;;;20.40;99.90;;;;;;5074827;28;20993;-58
2022/08/18 03:49:36;;;;;;;7.40;6.20;;;20.30;99.90;;;;;;5075037;28;20513;-57
2022/08/18 03:52:07;;;;;;;7.90;7.20;;;20.30;99.90;;;;;;5075143;28;20794;-57
2022/08/18 03:54:34;;;;;;;7.07;6.47;;;20.20;99.90;;;;;;5075262;28;20482;-58
2022/08/18 03:57:01;;;;;;;6.47;5.97;;;20.20;99.90;;;;;;5074974;28;20498;-57
2022/08/18 03:59:30;;;;;;;7.50;6.90;;;20.10;99.90;;;;;;5074616;28;20996;-57
2022/08/18 04:01:59;;;;;;;7.03;6.43;;;20.10;99.90;;;;;;5074814;28;20468;-58
2022/08/18 04:04:28;;;;;;;8.10;7.30;;;20.20;99.90;;;;;;5074217;28;20452;-56
2022/08/18 04:06:58;;;;;;;7.53;6.63;;;20.20;99.90;;;;;;5073878;28;20444;-62
2022/08/18 04:09:27;;;;;;;6.77;6.17;;;20.30;99.90;;;;;;5074846;28;20498;-57
2022/08/18 04:11:54;;;;;;;7.20;6.60;;;20.40;99.90;;;;;;5074659;28;20867;-56
2022/08/18 04:14:25;;;;;;;7.60;7.00;;;20.40;99.90;;;;;;5074278;28;20452;-56
2022/08/18 04:16:52;;;;;;;6.13;5.50;;;20.50;99.90;;;;;;5074608;28;20460;-56
2022/08/18 04:19:21;;;;;;;7.47;6.00;;;20.50;99.90;;;;;;5074649;28;20445;-56
2022/08/18 04:21:52;;;;;;;8.00;7.20;;;20.60;99.90;;;;;;5074109;28;20830;-57
2022/08/18 04:24:19;;;;;;;7.20;6.60;;;20.60;99.90;;;;;;5074368;28;20513;-56
2022/08/18 04:26:48;;;;;;;7.90;7.20;;;20.50;99.90;;;;;;5074481;28;20452;-56
2022/08/18 04:29:19;;;;;;;7.40;6.67;;;20.30;99.90;;;;;;5074033;28;20476;-56
2022/08/18 04:31:47;;;;;;;8.43;7.20;;;20.20;99.90;;;;;;5073894;28;20464;-55
2022/08/18 04:34:14;;;;;;;7.13;6.43;;;20.30;99.90;;;;;;5074291;28;20455;-56
2022/08/18 04:36:44;;;;;;;7.23;6.63;;;20.30;99.90;;;;;;5074530;28;20456;-56
2022/08/18 04:39:12;;;;;;;6.97;6.20;;;20.30;99.90;;;;;;5074136;28;20456;-57
2022/08/18 04:41:42;;;;;;;7.90;6.70;;;20.40;99.90;;;;;;5073649;28;20567;-57
2022/08/18 04:44:10;;;;;;;7.50;6.90;;;20.30;99.90;;;;;;5073966;28;20568;-56
2022/08/18 04:46:39;;;;;;;7.80;7.00;;;20.30;99.90;;;;;;5073701;28;20451;-56
2022/08/18 04:49:08;;;;;;;7.53;6.83;;;20.30;99.90;;;;;;5073904;28;20463;-56
2022/08/18 04:51:36;;;;;;;7.70;6.90;;;20.30;99.90;;;;;;5073886;28;20560;-56
2022/08/18 04:54:03;;;;;;;7.07;6.47;;;20.30;99.90;;;;;;5073745;28;20447;-56
2022/08/18 04:56:33;;;;;;;6.73;6.23;;;20.30;99.90;;;;;;5073820;28;20862;-56
2022/08/18 04:59:05;;;;;;;8.00;7.20;;;20.30;99.90;;;;;;5074066;28;20527;-56
2022/08/18 05:01:35;;;;;;;8.13;7.43;;;20.30;99.90;;;;;;5073508;28;20837;-57
2022/08/18 05:04:02;;;;;;;7.40;6.70;;;20.30;99.90;;;;;;5073076;28;20981;-57
2022/08/18 05:06:30;;;;;;;6.90;6.30;;;20.40;99.90;;;;;;5073274;28;20444;-56
2022/08/18 05:09:01;;;;;;;7.93;7.13;;;20.50;99.90;;;;;;5073305;28;20452;-56
2022/08/18 05:11:32;;;;;;;7.47;6.77;;;20.80;99.90;;;;;;5073322;28;20480;-56
2022/08/18 05:14:00;;;;;;;7.43;6.73;;;20.90;99.90;;;;;;5073189;28;20429;-56
2022/08/18 05:16:28;;;;;;;7.10;6.50;;;20.90;99.90;;;;;;5073283;28;20455;-56
2022/08/18 05:18:56;;;;;;;7.27;6.67;;;20.90;99.90;;;;;;5073390;28;20535;-56
2022/08/18 05:21:24;;;;;;;7.17;6.47;;;20.80;99.90;;;;;;5073115;28;20802;-56
2022/08/18 05:23:52;;;;;;;7.07;6.37;;;20.70;99.90;;;;;;5073218;28;20512;-56
2022/08/18 05:26:19;;;;;;;7.47;6.63;;;20.80;99.90;;;;;;5073163;28;20448;-57
2022/08/18 05:28:48;;;;;;;7.90;7.10;;;20.90;99.90;;;;;;5073020;28;20459;-56
2022/08/18 05:31:17;;;;;;;7.47;6.80;;;21.00;99.90;;;;;;5072842;28;20861;-56
2022/08/18 05:33:45;;;;;;;6.77;6.17;;;21.10;99.90;;;;;;5073239;28;20448;-56
2022/08/18 05:36:26;;;;;;;8.57;7.77;;;21.00;99.90;;;;;;5073073;28;20444;-57
2022/08/18 05:38:58;;;;;;;7.10;6.50;;;21.10;99.90;;;;;;5072805;28;20530;-56
2022/08/18 05:41:32;;;;;;;6.97;6.03;;;21.00;99.90;;;;;;5072730;28;20452;-56
2022/08/18 05:44:01;;;;;;;8.97;8.03;;;21.00;99.90;;;;;;5072962;28;20476;-57
2022/08/18 05:46:39;;;;;;;7.30;6.70;;;21.10;99.90;;;;;;5072733;28;20444;-57
2022/08/18 05:49:06;;;;;;;10.00;6.13;;;21.20;99.90;;;;;;5073131;28;20437;-56
2022/08/18 05:51:39;;;;;;;8.03;7.13;;;21.40;99.90;;;;;;5072497;28;21064;-56
2022/08/18 05:56:57;;;;;;;8.10;7.30;;;21.80;99.90;;;;;;5072752;28;20511;-57
2022/08/18 05:59:27;;;;;;;7.67;6.97;;;21.80;99.90;;;;;;5073180;28;20436;-56
2022/08/18 06:02:02;;;;;;;7.90;7.30;;;21.80;99.90;;;;;;5072665;28;20496;-58
2022/08/18 06:04:42;;;;;;;7.83;7.13;;;21.80;99.90;;;;;;5072786;28;20468;-56
2022/08/18 06:07:15;;;;;;;8.07;7.37;;;21.80;99.90;;;;;;5072674;28;20425;-57
2022/08/18 06:09:47;;;;;;;8.10;7.40;;;21.80;99.90;;;;;;5072609;28;20849;-56
2022/08/18 06:12:22;;;;;;;8.77;7.87;;;21.90;99.90;;;;;;5072921;28;20559;-56
2022/08/18 06:14:51;;;;;;;7.00;6.40;;;22.00;99.90;;;;;;5072764;28;20428;-56
2022/08/18 06:17:41;;;;;;;8.90;8.07;;;22.10;99.90;;;;;;5072465;28;20476;-57
2022/08/18 06:20:16;;;;;;;8.17;7.47;;;21.70;99.90;;;;;;5072744;28;20512;-57
2022/08/18 06:22:55;;;;;;;9.17;8.30;;;21.60;99.90;;;;;;5072481;28;20431;-56
2022/08/18 06:25:27;;;;;;;8.40;7.70;;;21.70;99.90;;;;;;5072517;28;20487;-56
2022/08/18 06:28:01;;;;;;;8.47;7.77;;;21.90;99.90;;;;;;5072861;28;20425;-57
2022/08/18 06:30:46;;;;;;;7.03;6.43;;;21.80;99.90;;;;;;5076196;28;20521;-56
2022/08/18 06:33:30;;;;;;;8.63;7.83;;;22.00;99.90;;;;;;5076056;28;20926;-56
2022/08/18 06:36:02;;;;;;;8.90;7.70;;;22.00;99.90;;;;;;5076388;28;20433;-57
2022/08/18 06:38:40;;;;;;;8.77;7.40;;;22.10;99.90;;;;;;5076334;28;20439;-57
2022/08/18 06:41:15;;;;;;;7.63;7.00;;;22.10;99.90;;;;;;5075898;28;21041;-56
2022/08/18 06:43:57;;;;;;;12.10;8.43;;;22.20;99.90;;;;;;5075826;28;20463;-57
2022/08/18 06:46:35;;;;;;;7.83;7.23;;;22.20;99.90;;;;;;5075937;28;20516;-56
2022/08/18 06:49:07;;;;;;;9.40;8.60;;;22.30;99.90;;;;;;5075957;28;20416;-56
2022/08/18 06:51:35;;;;;;;9.23;7.97;;;22.40;99.90;;;;;;5075750;28;20468;-56
2022/08/18 06:54:05;;;;;;;8.83;8.00;;;22.40;99.90;;;;;;5075542;28;21031;-56
2022/08/18 06:56:49;;;;;;;9.50;7.60;;;22.50;99.90;;;;;;5075717;28;20424;-56
2022/08/18 06:59:24;;;;;;;8.27;7.50;;;22.50;99.90;;;;;;5075886;28;20475;-56
2022/08/18 07:01:55;;;;;;;8.23;7.43;;;22.50;99.90;;;;;;5075883;28;20875;-57
2022/08/18 07:04:37;;;;;;;7.97;7.27;;;22.70;99.90;;;;;;5075474;28;20837;-56
2022/08/18 07:07:16;;;;;;;7.33;6.73;;;23.00;99.90;;;;;;5075485;28;20440;-56
2022/08/18 07:09:44;;;;;;;7.23;6.60;;;22.90;99.90;;;;;;5075191;28;20540;-56
2022/08/18 07:12:18;;;;;;;8.87;6.90;;;22.90;99.90;;;;;;5075128;28;20563;-56
2022/08/18 07:14:49;;;;;;;8.90;7.20;;;22.80;99.90;;;;;;5075274;28;20416;-56
2022/08/18 07:17:23;;;;;;;8.17;7.30;;;22.90;99.90;;;;;;5075380;28;20428;-56
2022/08/18 07:20:08;;;;;;;7.73;6.93;;;23.00;99.90;;;;;;5075156;28;20428;-56
2022/08/18 07:22:57;;;;;;;7.13;6.47;;;22.80;99.90;;;;;;5075135;28;20872;-56
2022/08/18 07:25:38;;;;;;;7.37;6.77;;;23.00;99.90;;;;;;5075165;28;20891;-56
2022/08/18 07:28:06;;;;;;;7.20;6.60;;;23.20;99.90;;;;;;5075341;28;20413;-56
2022/08/18 07:30:36;;;;;;;6.33;5.83;;;23.10;99.90;;;;;;5075133;28;20566;-56
2022/08/18 07:33:14;;;;;;;7.77;7.07;;;22.90;99.90;;;;;;5074628;28;20957;-57
2022/08/18 07:35:46;;;;;;;7.13;6.53;;;22.90;99.90;;;;;;5075365;28;20501;-57
2022/08/18 07:38:18;;;;;;;7.27;6.57;;;22.90;99.90;;;;;;5075496;28;20428;-56
2022/08/18 07:40:53;;;;;;;6.90;6.07;;;22.90;99.90;;;;;;5074690;28;20482;-56
2022/08/18 07:43:27;;;;;;;8.63;6.90;;;22.80;99.90;;;;;;5074171;28;20526;-56
2022/08/18 07:46:02;;;;;;;7.03;6.43;;;22.70;99.90;;;;;;5074981;28;20432;-57
2022/08/18 07:48:33;;;;;;;7.10;6.33;;;22.60;99.90;;;;;;5075006;28;20431;-56
2022/08/18 07:51:07;;;;;;;6.77;6.00;;;22.60;99.90;;;;;;5074009;28;20465;-57
2022/08/18 07:53:44;;;;;;;11.73;7.20;;;22.70;99.90;;;;;;5074842;28;20433;-57
2022/08/18 07:56:18;;;;;;;6.63;6.03;;;22.80;99.90;;;;;;5074438;28;20425;-57
2022/08/18 07:58:50;;;;;;;6.70;6.10;;;22.90;99.90;;;;;;5074513;28;20424;-57
2022/08/18 08:01:25;;;;;;;8.83;5.87;;;23.00;99.90;;;;;;5074757;28;20548;-56
2022/08/18 08:04:05;;;;;;;7.00;6.40;;;22.60;99.90;;;;;;5074241;28;20460;-56
2022/08/18 08:06:39;;;;;;;6.70;6.10;;;22.40;99.90;;;;;;5074112;28;20428;-57
2022/08/18 08:09:14;;;;;;;9.97;7.57;;;22.40;99.90;;;;;;5074498;28;20524;-57
2022/08/18 08:11:51;;;;;;;8.03;7.33;;;22.40;99.90;;;;;;5074231;28;20519;-56
2022/08/18 08:14:37;;;;;;;8.67;7.20;;;22.20;99.90;;;;;;5073915;28;20431;-56
2022/08/18 08:17:12;;;;;;;7.70;7.00;;;22.50;99.90;;;;;;5074092;28;20460;-57
2022/08/18 08:19:59;;;;;;;8.53;7.77;;;22.40;99.90;;;;;;5074379;28;20451;-57
2022/08/18 08:22:36;;;;;;;7.50;6.90;;;22.30;99.90;;;;;;5074197;28;20433;-57
2022/08/18 08:25:08;;;;;;;7.13;6.43;;;22.50;99.90;;;;;;5073780;28;20468;-57
2022/08/18 08:27:55;;;;;;;7.37;6.77;;;22.70;99.90;;;;;;5073750;28;20459;-57
2022/08/18 08:30:25;;;;;;;8.23;7.10;;;22.90;99.90;;;;;;5073626;28;20472;-56
2022/08/18 08:33:03;;;;;;;7.43;6.67;;;23.00;99.90;;;;;;5073899;28;20448;-57
2022/08/18 08:35:39;;;;;;;6.80;6.20;;;23.10;99.90;;;;;;5073927;28;20421;-57
2022/08/18 08:38:12;;;;;;;8.20;7.50;;;23.10;99.90;;;;;;5073987;28;20539;-56
2022/08/18 08:40:50;;;;;;;7.37;6.77;;;23.30;99.90;;;;;;5073698;28;20550;-57
2022/08/18 08:43:24;;;;;;;9.73;7.23;;;23.50;99.90;;;;;;5073321;28;20480;-56
2022/08/18 08:46:01;;;;;;;8.20;6.80;;;23.70;99.90;;;;;;5073752;28;20471;-56
2022/08/18 08:48:32;;;;;;;10.03;8.20;;;24.00;99.90;;;;;;5073683;28;20432;-56
2022/08/18 08:51:11;;;;;;;7.77;7.07;;;23.80;99.90;;;;;;5073086;28;20460;-56
2022/08/18 08:53:43;;;;;;;10.63;8.40;;;23.60;99.90;;;;;;5073672;28;20515;-55
2022/08/18 08:56:15;;;;;;;8.10;7.40;;;23.50;99.90;;;;;;5073574;28;20495;-56
2022/08/18 08:58:48;;;;;;;8.63;7.87;;;24.10;99.90;;;;;;5073469;28;20424;-56
2022/08/18 09:01:27;;;;;;;7.33;6.63;;;24.50;99.90;;;;;;5073358;28;20488;-56
2022/08/18 09:04:01;;;;;;;6.87;6.37;;;24.50;99.90;;;;;;5073326;28;20469;-56
2022/08/18 09:06:46;;;;;;;8.23;7.43;;;24.50;99.90;;;;;;5073224;28;20930;-56
2022/08/18 09:09:29;;;;;;;8.43;7.73;;;24.40;99.90;;;;;;5073246;28;20523;-56
2022/08/18 09:12:32;;;;;;;7.53;6.93;;;24.30;99.90;;;;;;5073482;28;20510;-56
2022/08/18 09:15:15;;;;;;;8.50;7.70;;;24.50;99.90;;;;;;5073153;28;20511;-56
2022/08/18 09:18:01;;;;;;;9.43;8.47;;;24.60;99.90;;;;;;5073018;28;20464;-56
2022/08/18 09:20:56;;;;;;;9.37;8.27;;;25.00;99.90;;;;;;5073148;28;20542;-57
2022/08/18 09:23:28;;;;;;;8.90;8.03;;;25.30;99.90;;;;;;5072933;28;20813;-57
2022/08/18 09:25:59;;;;;;;8.47;7.67;;;25.70;99.90;;;;;;5073012;28;20884;-57
2022/08/18 09:28:56;;;;;;;6.97;6.33;;;26.10;99.90;;;;;;5073083;28;20420;-57
2022/08/18 09:31:25;;;;;;;8.40;7.70;;;26.80;99.90;;;;;;5073224;28;20460;-56
2022/08/18 09:34:17;;;;;;;9.10;8.30;;;27.20;99.90;;;;;;5073174;28;20787;-56
2022/08/18 09:37:02;;;;;;;16.27;7.20;;;27.10;99.90;;;;;;5073664;28;20425;-56
2022/08/18 09:42:31;;;;;;;9.03;8.07;;;27.90;99.90;;;;;;5072719;28;20468;-56
2022/08/18 09:45:11;;;;;;;10.10;9.23;;;28.20;99.90;;;;;;5072778;28;20967;-57
2022/08/18 09:47:59;;;;;;;8.30;7.10;;;27.90;99.90;;;;;;5073180;28;20428;-56
2022/08/18 09:50:53;;;;;;;8.50;7.10;;;28.30;99.90;;;;;;5073127;28;20514;-56
2022/08/18 09:54:08;;;;;;;6.50;6.00;;;28.20;99.90;;;;;;5072978;28;20439;-56
2022/08/18 09:57:16;;;;;;;8.80;8.10;;;27.40;99.90;;;;;;5070177;28;20488;-56
2022/08/18 10:00:21;;;;;;;8.70;7.90;;;27.20;99.90;;;;;;5065074;28;20913;-56
2022/08/18 10:03:17;;;;;;;9.03;8.33;;;27.00;99.90;;;;;;5072579;28;21077;-56
2022/08/18 10:06:21;;;;;;;9.57;8.67;;;26.70;99.90;;;;;;5076926;28;20468;-57
2022/08/18 10:09:17;;;;;;;8.97;8.13;;;27.00;99.90;;;;;;5045028;28;20448;-57
2022/08/18 10:11:55;;;;;;;6.70;6.20;;;27.90;99.90;;;;;;5076576;28;20567;-56
2022/08/18 10:14:51;;;;;;;9.60;7.97;;;28.50;99.90;;;;;;5076620;28;20428;-56
2022/08/18 10:17:33;;;;;;;8.87;8.17;;;28.90;99.90;;;;;;5076342;28;20460;-57
2022/08/18 10:20:14;;;;;;;10.20;9.30;;;28.80;99.90;;;;;;5076459;28;20435;-57
2022/08/18 10:22:46;;;;;;;12.30;8.50;;;27.90;99.90;;;;;;5076257;28;20424;-56
2022/08/18 10:25:30;;;;;;;8.50;7.70;;;27.30;99.90;;;;;;5076624;28;20821;-57
2022/08/18 10:27:57;;;;;;;8.77;7.93;;;27.30;99.90;;;;;;5076267;28;20428;-56
2022/08/18 10:30:48;;;;;;;8.33;7.63;;;27.80;99.90;;;;;;5076075;28;21014;-56
2022/08/18 10:34:08;;;;;;;8.63;7.93;;;27.40;99.90;;;;;;5076174;28;20756;-56
2022/08/18 10:36:55;;;;;;;10.40;9.40;;;27.60;99.90;;;;;;5014153;28;20524;-56
2022/08/18 10:39:26;;;;;;;8.73;7.93;;;27.80;99.90;;;;;;5014029;28;20434;-56
2022/08/18 10:42:00;;;;;;;9.67;8.60;;;28.10;99.90;;;;;;5051138;28;20485;-56
2022/08/18 10:44:28;;;;;;;13.17;9.87;;;28.20;99.90;;;;;;5075903;28;20977;-56
2022/08/18 10:46:58;;;;;;;9.57;8.67;;;27.50;99.90;;;;;;5075929;28;20863;-56
2022/08/18 10:49:27;;;;;;;8.17;7.37;;;27.70;99.90;;;;;;5075737;28;20440;-56
2022/08/18 10:52:37;;;;;;;9.03;8.13;;;27.90;99.90;;;;;;5075665;28;20479;-56
2022/08/18 10:55:45;;;;;;;10.03;9.13;;;28.50;99.90;;;;;;5075968;28;20477;-56
2022/08/18 10:58:44;;;;;;;9.43;8.53;;;29.20;99.50;;;;;;5013886;28;20543;-56
2022/08/18 11:01:23;;;;;;;9.37;8.67;;;28.70;99.90;;;;;;5074310;28;20481;-57
2022/08/18 11:04:03;;;;;;;9.47;8.73;;;28.80;99.20;;;;;;5075762;28;20440;-57
2022/08/18 11:06:40;;;;;;;9.20;8.50;;;29.40;98.80;;;;;;5075779;28;20431;-57
2022/08/18 11:09:08;;;;;;;9.60;8.80;;;29.70;97.60;;;;;;5075431;28;20471;-57
2022/08/18 11:11:41;;;;;;;11.10;8.40;;;28.40;99.30;;;;;;5075328;28;20814;-56
2022/08/18 11:14:23;;;;;;;12.47;10.10;;;28.10;99.90;;;;;;5074806;28;20451;-56
2022/08/18 11:17:01;;;;;;;9.67;8.87;;;27.90;99.90;;;;;;5075274;28;20458;-56
2022/08/18 11:19:28;;;;;;;8.93;8.20;;;27.80;99.90;;;;;;5075584;28;20428;-56
2022/08/18 11:21:55;;;;;;;8.97;8.07;;;27.60;99.90;;;;;;5075138;28;20970;-56
2022/08/18 11:24:25;;;;;;;9.23;8.50;;;27.50;99.90;;;;;;5075475;28;20495;-57
2022/08/18 11:26:56;;;;;;;16.50;9.77;;;27.20;99.90;;;;;;5075172;28;21048;-57
2022/08/18 11:29:31;;;;;;;11.50;10.30;;;27.30;99.90;;;;;;5075503;28;20448;-57
2022/08/18 11:32:03;;;;;;;9.60;8.70;;;26.80;99.90;;;;;;5075407;28;20474;-57
2022/08/18 11:34:36;;;;;;;10.07;9.17;;;26.90;99.90;;;;;;5075294;28;20428;-56
2022/08/18 11:37:07;;;;;;;9.97;8.93;;;27.30;99.90;;;;;;5075202;28;20435;-56
2022/08/18 11:39:43;;;;;;;9.97;9.07;;;27.90;99.90;;;;;;5075387;28;20768;-57
2022/08/18 11:42:17;;;;;;;9.73;8.83;;;27.90;99.80;;;;;;5074673;28;20479;-56
2022/08/18 11:44:45;;;;;;;11.37;10.40;;;27.50;99.90;;;;;;5074631;28;20832;-57
2022/08/18 11:47:21;;;;;;;10.60;9.60;;;27.30;99.90;;;;;;5074807;28;20438;-57
2022/08/18 11:49:58;;;;;;;8.47;7.77;;;26.90;99.90;;;;;;5075053;28;20429;-58
2022/08/18 11:52:28;;;;;;;11.03;9.93;;;27.00;99.90;;;;;;5075124;28;20831;-57
2022/08/18 11:55:01;;;;;;;11.80;8.80;;;27.40;99.90;;;;;;5074887;28;20973;-57
2022/08/18 11:57:52;;;;;;;10.03;9.13;;;28.20;99.80;;;;;;5074620;28;20420;-56
2022/08/18 12:00:57;;;;;;;10.37;9.47;;;28.20;98.70;;;;;;5074592;28;20543;-57
2022/08/18 12:03:36;;;;;;;10.40;9.40;;;28.30;99.50;;;;;;5043618;28;20554;-57
2022/08/18 12:06:19;;;;;;;9.50;8.67;;;28.10;98.70;;;;;;5074616;28;20471;-58
2022/08/18 12:08:53;;;;;;;11.07;9.60;;;28.40;98.70;;;;;;5074876;28;20425;-57
2022/08/18 12:11:23;;;;;;;11.10;10.00;;;28.40;98.40;;;;;;5074123;28;20502;-58
2022/08/18 12:14:06;;;;;;;8.77;8.07;;;28.40;97.80;;;;;;5074060;28;20448;-58
2022/08/18 12:16:37;;;;;;;10.77;9.77;;;28.70;97.50;;;;;;5074238;28;20511;-57
2022/08/18 12:19:04;;;;;;;9.63;8.80;;;28.90;97.70;;;;;;5074417;28;20441;-57
2022/08/18 12:21:32;;;;;;;10.23;9.10;;;29.20;96.80;;;;;;5074629;28;20838;-58
2022/08/18 12:23:59;;;;;;;8.40;7.80;;;29.40;96.50;;;;;;5073990;28;20441;-58
2022/08/18 12:26:27;;;;;;;9.77;8.97;;;29.40;96.40;;;;;;5073096;28;20587;-58
2022/08/18 12:28:54;;;;;;;10.20;9.40;;;29.30;96.40;;;;;;5074019;28;21012;-58
2022/08/18 12:31:22;;;;;;;11.97;10.97;;;29.10;96.00;;;;;;5074013;28;20494;-58
2022/08/18 12:33:49;;;;;;;11.20;9.40;;;28.70;96.60;;;;;;5073932;28;20455;-58
2022/08/18 12:36:16;;;;;;;8.43;7.80;;;28.90;97.10;;;;;;5074154;28;20808;-57
2022/08/18 12:38:45;;;;;;;10.33;8.73;;;29.40;95.90;;;;;;5073626;28;20448;-57
2022/08/18 12:41:14;;;;;;;9.13;8.37;;;29.30;94.70;;;;;;5073042;28;20464;-57
2022/08/18 12:43:41;;;;;;;9.20;8.40;;;29.30;94.50;;;;;;5033856;28;20937;-57
2022/08/18 12:46:09;;;;;;;9.23;8.43;;;29.10;95.00;;;;;;5033819;28;20568;-57
2022/08/18 12:48:39;;;;;;;8.73;8.03;;;29.30;94.50;;;;;;5033590;28;20954;-57
2022/08/18 12:51:07;;;;;;;10.17;9.30;;;29.00;94.80;;;;;;5034044;28;20470;-57
2022/08/18 12:53:34;;;;;;;9.93;9.03;;;28.30;96.10;;;;;;5033563;28;20929;-57
2022/08/18 12:56:01;;;;;;;8.97;7.97;;;28.20;96.40;;;;;;5033882;28;20453;-57
2022/08/18 12:58:29;;;;;;;8.80;7.93;;;28.80;95.90;;;;;;5033466;28;20461;-57
2022/08/18 13:00:57;;;;;;;9.07;8.17;;;29.20;94.70;;;;;;5033789;28;20474;-57
2022/08/18 13:03:24;;;;;;;8.90;8.27;;;29.00;94.10;;;;;;5033597;28;20524;-57
2022/08/18 13:05:52;;;;;;;9.47;8.57;;;29.30;93.60;;;;;;5033175;28;20810;-57
2022/08/18 13:08:22;;;;;;;13.93;8.50;;;29.10;93.40;;;;;;5033878;28;20445;-57
2022/08/18 13:10:49;;;;;;;8.80;8.00;;;29.40;92.90;;;;;;5033376;28;20478;-57
2022/08/18 13:13:18;;;;;;;9.30;8.50;;;29.40;92.90;;;;;;5033307;28;20454;-58
2022/08/18 13:15:46;;;;;;;8.47;7.77;;;29.50;92.90;;;;;;5033584;28;20443;-57
2022/08/18 13:18:14;;;;;;;8.20;7.50;;;29.20;92.90;;;;;;5033531;28;20454;-57
2022/08/18 13:20:42;;;;;;;9.20;8.37;;;29.20;93.00;;;;;;5033082;28;20994;-57
2022/08/18 13:23:11;;;;;;;8.77;7.30;;;29.00;93.20;;;;;;5033540;28;20541;-57
2022/08/18 13:25:40;;;;;;;9.03;8.23;;;29.20;93.50;;;;;;5033664;28;20561;-58
2022/08/18 13:28:07;;;;;;;9.17;8.37;;;29.20;93.60;;;;;;5033104;28;20511;-58